Time;durP1;ratioP1;P1;durP2;ratioP2;P2;SDS_P1;SDS_P2;PMS_P1;PMS_P2;Temp;Humidity;BMP_temperature;BMP_pressure;BME280_temperature;BME280_humidity;BME280_pressure;Samples;Min_cycle;Max_cycle;Signal;HPM_P1;HPM_P2
2023/10/26 00:01:27;;;;;;;77.68;54.08;;;10.50;99.90;;;;;;5031522;28;20055;-71
2023/10/26 00:03:53;;;;;;;75.65;54.40;;;10.30;99.90;;;;;;5015789;28;20044;-71
2023/10/26 00:06:18;;;;;;;77.53;54.72;;;10.30;99.90;;;;;;4993277;28;20053;-69
2023/10/26 00:08:44;;;;;;;79.07;56.03;;;10.30;99.90;;;;;;5010910;28;20531;-71
2023/10/26 00:11:10;;;;;;;74.03;54.53;;;10.50;99.90;;;;;;5010125;28;20045;-70
2023/10/26 00:13:36;;;;;;;74.93;52.88;;;10.30;99.90;;;;;;5010190;28;20227;-69
2023/10/26 00:16:01;;;;;;;68.25;52.13;;;10.50;99.90;;;;;;5009496;28;20276;-69
2023/10/26 00:18:27;;;;;;;71.63;53.78;;;10.50;99.90;;;;;;5009324;28;20049;-71
2023/10/26 00:21:00;;;;;;;73.32;56.15;;;10.50;99.90;;;;;;4993741;28;20037;-71
2023/10/26 00:23:26;;;;;;;75.10;55.38;;;10.30;99.90;;;;;;4996043;28;20131;-70
2023/10/26 00:25:52;;;;;;;75.70;54.58;;;10.30;99.90;;;;;;4993533;28;20072;-69
2023/10/26 00:28:18;;;;;;;83.00;58.10;;;10.50;99.90;;;;;;5009728;28;20050;-70
2023/10/26 00:30:43;;;;;;;76.03;54.42;;;10.50;99.90;;;;;;4993314;28;20220;-71
2023/10/26 00:33:09;;;;;;;76.82;55.47;;;10.50;99.90;;;;;;4993802;28;20123;-70
2023/10/26 00:35:35;;;;;;;74.80;54.22;;;10.50;99.90;;;;;;4977308;28;20068;-70
2023/10/26 00:38:01;;;;;;;71.05;53.47;;;10.40;99.90;;;;;;4992952;28;20523;-71
2023/10/26 00:40:26;;;;;;;80.53;56.28;;;10.30;99.90;;;;;;5009947;28;20849;-69
2023/10/26 00:43:01;;;;;;;69.63;53.15;;;10.30;99.90;;;;;;5008948;28;20134;-71
2023/10/26 00:45:30;;;;;;;74.53;55.85;;;10.40;99.90;;;;;;4993622;28;20585;-71
2023/10/26 00:47:56;;;;;;;73.50;53.97;;;10.50;99.90;;;;;;5009230;28;20499;-69
2023/10/26 00:50:22;;;;;;;81.05;56.92;;;10.40;99.90;;;;;;5010234;28;20372;-70
2023/10/26 00:52:49;;;;;;;73.90;52.63;;;10.50;99.90;;;;;;5008653;28;20048;-69
2023/10/26 00:55:16;;;;;;;78.82;55.05;;;10.30;99.90;;;;;;5008986;28;20123;-69
2023/10/26 00:57:43;;;;;;;66.88;47.90;;;10.50;99.90;;;;;;5009250;28;20053;-70
2023/10/26 01:00:09;;;;;;;68.22;49.75;;;10.50;99.90;;;;;;5009243;28;20298;-70
2023/10/26 01:02:36;;;;;;;66.72;48.13;;;10.60;99.90;;;;;;5009933;28;20463;-70
2023/10/26 01:05:03;;;;;;;75.88;52.92;;;10.40;99.90;;;;;;5009996;28;20131;-70
2023/10/26 01:07:29;;;;;;;77.50;53.42;;;10.30;99.90;;;;;;5009865;28;20057;-70
2023/10/26 01:09:55;;;;;;;81.55;54.85;;;10.30;99.90;;;;;;5025961;28;20049;-70
2023/10/26 01:12:21;;;;;;;52.50;39.97;;;10.40;99.90;;;;;;5027330;28;20052;-70
2023/10/26 01:14:47;;;;;;;80.32;51.42;;;10.30;99.90;;;;;;4995784;28;20044;-70
2023/10/26 01:17:14;;;;;;;95.07;56.88;;;10.20;99.90;;;;;;4982786;28;20671;-70
2023/10/26 01:19:42;;;;;;;94.20;55.60;;;10.50;99.90;;;;;;4994783;28;20044;-71
2023/10/26 01:22:09;;;;;;;86.93;52.45;;;10.50;99.90;;;;;;5026626;28;20491;-70
2023/10/26 01:24:34;;;;;;;92.57;56.33;;;10.40;99.90;;;;;;5010361;28;20225;-70
2023/10/26 01:27:00;;;;;;;86.13;55.10;;;10.20;99.90;;;;;;5010654;28;20106;-71
2023/10/26 01:29:26;;;;;;;90.60;57.17;;;10.30;99.90;;;;;;4993558;28;20098;-70
2023/10/26 01:31:52;;;;;;;80.55;49.33;;;10.20;99.90;;;;;;5028243;28;20484;-70
2023/10/26 01:34:17;;;;;;;78.18;51.92;;;10.50;99.90;;;;;;5009982;28;20037;-71
2023/10/26 01:36:43;;;;;;;82.00;53.53;;;10.20;99.90;;;;;;5009428;28;20052;-71
2023/10/26 01:39:09;;;;;;;82.28;52.50;;;10.50;99.90;;;;;;5009491;28;20416;-69
2023/10/26 01:41:34;;;;;;;75.95;49.97;;;10.30;99.90;;;;;;5027956;28;20041;-70
2023/10/26 01:44:01;;;;;;;86.70;55.38;;;10.50;99.90;;;;;;4995607;28;20045;-70
2023/10/26 01:46:26;;;;;;;86.43;54.40;;;10.30;99.90;;;;;;5027352;28;20426;-69
2023/10/26 01:48:52;;;;;;;80.47;53.47;;;10.10;99.90;;;;;;5028126;28;20048;-69
2023/10/26 01:51:18;;;;;;;83.10;52.70;;;10.40;99.90;;;;;;5027419;28;20315;-69
2023/10/26 01:53:44;;;;;;;93.50;57.05;;;10.20;99.90;;;;;;5010036;28;20475;-70
2023/10/26 01:56:10;;;;;;;89.63;56.05;;;10.10;99.90;;;;;;5027385;28;20047;-69
2023/10/26 01:58:35;;;;;;;84.88;54.13;;;10.10;99.90;;;;;;5026746;28;20163;-70
2023/10/26 02:01:01;;;;;;;86.72;54.90;;;10.40;99.90;;;;;;4994386;28;20441;-70
2023/10/26 02:03:27;;;;;;;82.18;55.03;;;10.10;99.90;;;;;;5027298;28;20045;-70
2023/10/26 02:05:52;;;;;;;85.82;52.92;;;10.40;99.90;;;;;;5031726;28;20298;-70
2023/10/26 02:08:18;;;;;;;93.57;55.22;;;10.40;99.90;;;;;;5034271;28;20527;-71
2023/10/26 02:10:44;;;;;;;85.30;52.58;;;10.10;99.90;;;;;;5033001;28;20733;-70
2023/10/26 02:13:10;;;;;;;90.65;57.17;;;10.30;99.90;;;;;;5016752;28;20337;-70
2023/10/26 02:15:36;;;;;;;82.03;54.88;;;10.30;99.90;;;;;;5016665;28;20106;-70
2023/10/26 02:18:02;;;;;;;92.80;55.63;;;10.10;99.90;;;;;;5016965;28;20036;-71
2023/10/26 02:20:28;;;;;;;88.97;54.30;;;10.30;99.90;;;;;;5033340;28;20051;-71
2023/10/26 02:22:53;;;;;;;90.60;56.30;;;10.10;99.90;;;;;;5028554;28;20037;-70
2023/10/26 02:25:22;;;;;;;95.18;56.45;;;10.10;99.90;;;;;;5017381;28;20219;-70
2023/10/26 02:27:47;;;;;;;96.72;56.28;;;10.20;99.90;;;;;;5016982;28;20036;-69
2023/10/26 02:30:13;;;;;;;101.63;59.38;;;10.20;99.90;;;;;;5032527;28;20044;-70
2023/10/26 02:32:40;;;;;;;100.63;58.20;;;10.50;99.90;;;;;;5034057;28;20044;-70
2023/10/26 02:35:06;;;;;;;89.25;54.08;;;10.50;99.90;;;;;;5032580;28;20053;-70
2023/10/26 02:37:38;;;;;;;92.72;56.63;;;10.20;99.90;;;;;;5011914;28;20383;-70
2023/10/26 02:40:05;;;;;;;111.88;60.40;;;10.20;99.90;;;;;;5032118;28;20154;-70
2023/10/26 02:42:31;;;;;;;95.22;56.85;;;10.40;99.90;;;;;;5032706;28;20052;-70
2023/10/26 02:45:05;;;;;;;106.80;60.17;;;10.50;99.90;;;;;;5007194;28;20620;-71
2023/10/26 02:47:32;;;;;;;101.55;57.03;;;10.40;99.90;;;;;;5034004;28;20110;-71
2023/10/26 02:49:57;;;;;;;97.50;58.35;;;10.10;99.90;;;;;;5033559;28;20048;-70
2023/10/26 02:52:23;;;;;;;93.90;57.75;;;10.20;99.90;;;;;;5033627;28;20063;-71
2023/10/26 02:54:49;;;;;;;100.38;57.70;;;10.20;99.90;;;;;;5033198;28;20482;-71
2023/10/26 02:57:15;;;;;;;135.88;62.97;;;10.40;99.90;;;;;;5051196;28;20341;-71
2023/10/26 02:59:40;;;;;;;110.05;61.22;;;10.10;99.90;;;;;;5033252;28;20115;-70
2023/10/26 03:02:07;;;;;;;108.55;59.33;;;10.10;99.90;;;;;;5027584;28;20039;-71
2023/10/26 03:04:37;;;;;;;92.13;56.40;;;10.10;99.90;;;;;;5032818;28;20040;-70
2023/10/26 03:07:03;;;;;;;97.72;56.63;;;10.10;99.90;;;;;;5015682;28;20300;-70
2023/10/26 03:09:29;;;;;;;94.57;55.10;;;10.20;99.90;;;;;;4998904;28;20536;-70
2023/10/26 03:11:55;;;;;;;98.28;56.92;;;10.30;99.90;;;;;;5034116;28;20043;-69
2023/10/26 03:14:21;;;;;;;90.63;54.78;;;10.30;99.90;;;;;;5018363;28;20220;-70
2023/10/26 03:16:47;;;;;;;89.18;55.08;;;10.30;99.90;;;;;;5009405;28;20043;-70
2023/10/26 03:19:13;;;;;;;85.75;53.45;;;10.10;99.90;;;;;;5034807;28;20044;-70
2023/10/26 03:21:39;;;;;;;98.85;56.97;;;10.30;99.90;;;;;;5016365;28;20447;-70
2023/10/26 03:24:05;;;;;;;94.78;57.45;;;10.30;99.90;;;;;;5006709;28;20625;-70
2023/10/26 03:26:31;;;;;;;106.60;59.72;;;10.10;99.90;;;;;;5034099;28;20535;-70
2023/10/26 03:28:57;;;;;;;95.60;57.83;;;10.40;99.90;;;;;;5034524;28;20048;-70
2023/10/26 03:31:22;;;;;;;107.47;58.85;;;10.30;99.90;;;;;;5032655;28;20540;-69
2023/10/26 03:33:48;;;;;;;114.32;61.15;;;10.30;99.90;;;;;;5001103;28;20053;-69
2023/10/26 03:36:18;;;;;;;101.03;57.65;;;10.10;99.90;;;;;;5033996;28;20079;-70
2023/10/26 03:38:46;;;;;;;120.82;60.83;;;10.00;99.90;;;;;;5016842;28;20048;-70
2023/10/26 03:41:12;;;;;;;113.80;61.45;;;10.20;99.90;;;;;;5035215;28;20100;-69
2023/10/26 03:43:38;;;;;;;121.20;62.60;;;10.20;99.90;;;;;;5001460;28;20114;-70
2023/10/26 03:46:04;;;;;;;101.60;58.35;;;10.20;99.90;;;;;;5033153;28;20524;-71
2023/10/26 03:48:35;;;;;;;108.82;60.85;;;10.30;99.90;;;;;;5032906;28;20574;-70
2023/10/26 03:51:02;;;;;;;114.82;61.63;;;10.10;99.90;;;;;;5033139;28;20041;-71
2023/10/26 03:53:28;;;;;;;109.25;60.67;;;10.30;99.90;;;;;;5034179;28;20044;-72
2023/10/26 03:55:58;;;;;;;107.65;60.75;;;10.00;99.90;;;;;;5033347;28;20049;-70
2023/10/26 03:58:24;;;;;;;116.63;63.78;;;10.20;99.90;;;;;;5030551;28;20052;-70
2023/10/26 04:00:51;;;;;;;151.85;67.57;;;10.10;99.90;;;;;;5013331;28;20465;-71
2023/10/26 04:03:17;;;;;;;113.70;62.75;;;10.00;99.90;;;;;;5033777;28;20042;-71
2023/10/26 04:05:42;;;;;;;112.93;61.45;;;10.00;99.90;;;;;;5006661;28;20699;-70
2023/10/26 04:08:09;;;;;;;138.52;67.55;;;10.30;99.90;;;;;;5007153;28;20207;-71
2023/10/26 04:10:35;;;;;;;128.68;65.40;;;10.00;99.90;;;;;;5001850;28;20495;-70
2023/10/26 04:13:01;;;;;;;132.60;66.78;;;10.20;99.90;;;;;;4999991;28;20172;-70
2023/10/26 04:15:27;;;;;;;118.15;63.25;;;10.30;99.90;;;;;;5031633;28;20528;-70
2023/10/26 04:17:53;;;;;;;120.35;64.68;;;10.20;99.90;;;;;;5051574;28;20421;-69
2023/10/26 04:20:20;;;;;;;127.43;68.28;;;10.40;99.90;;;;;;5016530;28;20235;-70
2023/10/26 04:22:46;;;;;;;124.22;67.00;;;10.40;99.90;;;;;;5026847;28;20228;-69
2023/10/26 04:25:13;;;;;;;120.32;67.00;;;10.40;99.90;;;;;;5017249;28;20459;-69
2023/10/26 04:27:38;;;;;;;103.78;60.70;;;10.10;99.90;;;;;;5024312;28;20041;-70
2023/10/26 04:30:06;;;;;;;128.55;65.80;;;10.20;99.90;;;;;;5015186;28;20469;-70
2023/10/26 04:32:32;;;;;;;108.32;63.75;;;10.20;99.90;;;;;;5032268;28;20047;-70
2023/10/26 04:34:57;;;;;;;112.97;63.80;;;10.50;99.90;;;;;;5015976;28;20048;-70
2023/10/26 04:37:23;;;;;;;111.85;62.50;;;10.40;99.90;;;;;;5031851;28;20575;-70
2023/10/26 04:39:49;;;;;;;104.45;60.63;;;10.50;99.90;;;;;;5033516;28;20450;-70
2023/10/26 04:42:15;;;;;;;106.68;61.53;;;10.20;99.90;;;;;;5031839;28;20045;-70
2023/10/26 04:44:40;;;;;;;90.40;56.63;;;10.20;99.90;;;;;;5013291;28;20044;-71
2023/10/26 04:47:06;;;;;;;84.50;53.78;;;10.20;99.90;;;;;;5015138;28;20566;-70
2023/10/26 04:49:33;;;;;;;89.82;56.15;;;10.40;99.90;;;;;;5031839;28;20469;-69
2023/10/26 04:51:59;;;;;;;90.82;54.67;;;10.20;99.90;;;;;;5015351;28;20174;-70
2023/10/26 04:54:27;;;;;;;82.65;54.03;;;10.40;99.90;;;;;;5015274;28;20336;-71
2023/10/26 04:56:53;;;;;;;85.38;51.92;;;10.50;99.90;;;;;;5015223;28;20033;-71
2023/10/26 04:59:19;;;;;;;82.25;52.53;;;10.50;99.90;;;;;;5016176;28;20068;-71
2023/10/26 05:01:45;;;;;;;88.45;53.50;;;10.20;99.90;;;;;;5014881;28;20151;-69
2023/10/26 05:04:11;;;;;;;82.63;52.75;;;10.50;99.90;;;;;;5031216;28;20150;-70
2023/10/26 05:06:37;;;;;;;77.85;50.67;;;10.40;99.90;;;;;;5031416;28;20110;-70
2023/10/26 05:09:04;;;;;;;80.45;51.20;;;10.20;99.90;;;;;;5026182;28;20051;-70
2023/10/26 05:11:29;;;;;;;75.50;49.08;;;10.10;99.90;;;;;;5014114;28;20124;-70
2023/10/26 05:13:55;;;;;;;73.70;47.92;;;10.40;99.90;;;;;;5014500;28;20098;-70
2023/10/26 05:16:21;;;;;;;82.57;50.85;;;10.30;99.90;;;;;;5031483;28;20804;-71
2023/10/26 05:18:47;;;;;;;75.30;47.20;;;10.30;99.90;;;;;;5014984;28;20040;-70
2023/10/26 05:21:12;;;;;;;81.22;50.10;;;10.20;99.90;;;;;;5032507;28;20048;-70
2023/10/26 05:23:39;;;;;;;92.90;53.05;;;9.90;99.90;;;;;;5002777;28;20471;-71
2023/10/26 05:26:05;;;;;;;74.55;48.25;;;10.00;99.90;;;;;;5015786;28;20037;-70
2023/10/26 05:28:31;;;;;;;72.65;48.20;;;10.00;99.90;;;;;;5015010;28;20101;-70
2023/10/26 05:30:57;;;;;;;72.38;46.78;;;10.10;99.90;;;;;;5011412;28;20041;-71
2023/10/26 05:33:23;;;;;;;75.32;46.28;;;9.90;99.90;;;;;;5030353;28;20036;-71
2023/10/26 05:35:48;;;;;;;68.05;46.47;;;9.80;99.90;;;;;;5050468;28;20135;-70
2023/10/26 05:38:18;;;;;;;70.82;44.92;;;9.90;99.90;;;;;;5049345;28;20342;-70
2023/10/26 05:40:55;;;;;;;79.03;49.88;;;10.00;99.90;;;;;;5020302;28;20079;-70
2023/10/26 05:43:22;;;;;;;83.50;47.15;;;9.90;99.90;;;;;;5036515;28;20119;-70
2023/10/26 05:45:47;;;;;;;65.95;44.33;;;9.80;99.90;;;;;;5038254;28;20574;-70
2023/10/26 05:48:13;;;;;;;78.32;47.38;;;9.80;99.90;;;;;;5019611;28;20040;-70
2023/10/26 05:50:43;;;;;;;67.97;43.83;;;9.90;99.90;;;;;;5038601;28;20162;-70
2023/10/26 05:53:10;;;;;;;76.47;48.78;;;9.80;99.90;;;;;;5055948;28;20036;-70
2023/10/26 05:55:36;;;;;;;71.03;44.03;;;10.00;99.90;;;;;;5019592;28;20047;-70
2023/10/26 05:58:03;;;;;;;82.88;47.22;;;9.70;99.90;;;;;;5018882;28;20360;-69
2023/10/26 06:00:29;;;;;;;69.80;44.90;;;10.00;99.90;;;;;;5053012;28;20283;-70
2023/10/26 06:02:55;;;;;;;76.97;47.47;;;10.00;99.90;;;;;;5034018;28;20257;-69
2023/10/26 06:05:20;;;;;;;74.32;46.55;;;10.00;99.90;;;;;;5009463;28;20289;-69
2023/10/26 06:07:46;;;;;;;69.82;43.42;;;9.90;99.90;;;;;;5020856;28;20071;-69
2023/10/26 06:10:12;;;;;;;77.60;46.67;;;10.00;99.90;;;;;;5036691;28;20067;-69
2023/10/26 06:12:38;;;;;;;72.75;43.72;;;9.70;99.90;;;;;;5035908;28;20525;-70
2023/10/26 06:15:04;;;;;;;70.85;43.35;;;10.00;99.90;;;;;;5018719;28;20044;-70
2023/10/26 06:17:30;;;;;;;76.75;45.15;;;10.00;99.90;;;;;;5020775;28;20510;-70
2023/10/26 06:19:56;;;;;;;79.75;45.38;;;9.90;99.90;;;;;;5003395;28;20652;-70
2023/10/26 06:22:22;;;;;;;77.03;46.67;;;9.90;99.90;;;;;;5035664;28;20192;-70
2023/10/26 06:24:47;;;;;;;74.78;46.03;;;10.10;99.90;;;;;;5036329;28;20041;-70
2023/10/26 06:27:13;;;;;;;76.47;46.67;;;9.80;99.90;;;;;;5013158;28;20116;-70
2023/10/26 06:29:40;;;;;;;86.00;50.20;;;10.00;99.90;;;;;;5011944;28;20040;-71
2023/10/26 06:32:06;;;;;;;78.03;46.78;;;9.80;99.90;;;;;;5002745;28;20032;-69
2023/10/26 06:34:31;;;;;;;67.78;41.95;;;9.90;99.90;;;;;;5010218;28;20048;-70
2023/10/26 06:36:57;;;;;;;71.18;42.72;;;9.90;99.90;;;;;;5035565;28;20040;-69
2023/10/26 06:39:23;;;;;;;73.07;45.60;;;10.00;99.90;;;;;;5034938;28;20097;-70
2023/10/26 06:41:49;;;;;;;77.45;45.13;;;9.60;99.90;;;;;;5026504;28;20147;-70
2023/10/26 06:44:14;;;;;;;75.22;46.80;;;9.80;99.90;;;;;;5021604;28;20040;-70
2023/10/26 06:46:40;;;;;;;66.70;40.30;;;9.60;99.90;;;;;;5036525;28;20036;-68
2023/10/26 06:49:06;;;;;;;75.38;46.40;;;9.60;99.90;;;;;;5020549;28;20055;-70
2023/10/26 06:51:31;;;;;;;73.18;44.17;;;9.70;99.90;;;;;;5017692;28;20709;-70
2023/10/26 06:53:57;;;;;;;71.15;42.60;;;9.80;99.90;;;;;;5017692;28;20052;-71
2023/10/26 06:56:23;;;;;;;79.95;46.13;;;9.60;99.90;;;;;;5015375;28;20226;-70
2023/10/26 06:58:48;;;;;;;73.35;43.92;;;9.80;99.90;;;;;;5016248;28;20272;-70
2023/10/26 07:01:14;;;;;;;79.88;46.38;;;9.80;99.90;;;;;;5000142;28;20337;-70
2023/10/26 07:03:40;;;;;;;72.97;44.38;;;9.50;99.90;;;;;;5033996;28;20072;-71
2023/10/26 07:06:06;;;;;;;71.55;44.70;;;9.80;99.90;;;;;;5016001;28;20234;-69
2023/10/26 07:08:33;;;;;;;75.82;44.47;;;9.60;99.90;;;;;;5033838;28;20209;-71
2023/10/26 07:11:04;;;;;;;71.50;42.75;;;9.60;99.90;;;;;;5050456;28;20040;-69
2023/10/26 07:13:30;;;;;;;73.00;44.20;;;9.70;99.90;;;;;;5016512;28;20048;-70
2023/10/26 07:15:59;;;;;;;73.93;43.85;;;9.70;99.90;;;;;;5030118;28;20036;-70
2023/10/26 07:18:26;;;;;;;74.38;44.72;;;9.70;99.90;;;;;;5010745;28;20264;-69
2023/10/26 07:20:52;;;;;;;73.45;43.88;;;9.50;99.90;;;;;;5032508;28;20561;-70
2023/10/26 07:23:18;;;;;;;71.68;42.38;;;9.70;99.90;;;;;;5014393;28;20041;-69
2023/10/26 07:25:45;;;;;;;71.40;44.72;;;9.70;99.90;;;;;;5015322;28;20045;-69
2023/10/26 07:28:12;;;;;;;70.75;42.13;;;9.70;99.90;;;;;;5030428;28;20036;-70
2023/10/26 07:30:44;;;;;;;59.72;38.88;;;9.70;99.90;;;;;;5031700;28;20041;-70
2023/10/26 07:33:11;;;;;;;63.90;40.60;;;9.50;99.90;;;;;;4999417;28;20135;-70
2023/10/26 07:35:43;;;;;;;58.80;39.38;;;9.50;99.90;;;;;;5006610;28;20546;-70
2023/10/26 07:38:09;;;;;;;67.28;41.35;;;9.70;99.90;;;;;;5015693;28;20158;-70
2023/10/26 07:40:37;;;;;;;66.75;42.83;;;9.70;99.90;;;;;;5029191;28;21911;-71
2023/10/26 07:43:03;;;;;;;61.25;39.88;;;9.60;99.90;;;;;;5006536;28;20051;-69
2023/10/26 07:45:29;;;;;;;66.78;40.63;;;9.60;99.90;;;;;;5015731;28;20479;-70
2023/10/26 07:47:56;;;;;;;59.35;38.47;;;9.90;99.90;;;;;;5030728;28;20048;-69
2023/10/26 07:50:22;;;;;;;56.78;38.15;;;9.80;99.90;;;;;;5015270;28;20140;-70
2023/10/26 07:52:48;;;;;;;51.75;35.70;;;9.90;99.90;;;;;;5015955;28;20037;-70
2023/10/26 07:55:14;;;;;;;51.58;34.88;;;10.00;99.90;;;;;;5013670;28;20121;-70
2023/10/26 07:57:41;;;;;;;56.22;36.10;;;9.80;99.90;;;;;;5010069;28;20037;-70
2023/10/26 08:00:08;;;;;;;57.20;38.20;;;9.90;99.90;;;;;;5021794;28;20037;-69
2023/10/26 08:02:34;;;;;;;62.03;39.85;;;10.20;99.90;;;;;;5008431;28;20067;-69
2023/10/26 08:05:00;;;;;;;55.88;38.00;;;10.20;99.90;;;;;;5007216;28;20040;-70
2023/10/26 08:07:25;;;;;;;57.20;39.38;;;10.00;99.90;;;;;;5031111;28;20052;-69
2023/10/26 08:09:51;;;;;;;62.05;40.60;;;10.00;99.90;;;;;;4998228;28;20051;-70
2023/10/26 08:12:17;;;;;;;69.00;42.13;;;10.10;99.90;;;;;;5012082;28;20113;-71
2023/10/26 08:14:44;;;;;;;58.05;39.30;;;10.20;99.90;;;;;;5025419;28;20045;-71
2023/10/26 08:17:10;;;;;;;69.20;44.17;;;10.10;99.90;;;;;;5030501;28;20521;-71
2023/10/26 08:19:35;;;;;;;61.03;41.20;;;10.20;99.90;;;;;;5030193;28;20045;-70
2023/10/26 08:22:01;;;;;;;62.38;42.40;;;10.40;99.90;;;;;;4997561;28;20042;-69
2023/10/26 08:24:28;;;;;;;61.40;42.22;;;10.20;99.90;;;;;;5031066;28;20133;-70
2023/10/26 08:26:53;;;;;;;65.03;44.72;;;10.40;99.90;;;;;;5013490;28;20044;-70
2023/10/26 08:29:19;;;;;;;75.75;50.20;;;10.50;99.90;;;;;;5009239;28;20748;-70
2023/10/26 08:31:45;;;;;;;79.45;51.38;;;10.30;99.90;;;;;;5010251;28;20052;-70
2023/10/26 08:34:11;;;;;;;76.78;51.75;;;10.40;99.90;;;;;;5031488;28;20128;-69
2023/10/26 08:36:36;;;;;;;76.32;49.17;;;10.40;99.90;;;;;;5031346;28;20258;-71
2023/10/26 08:39:02;;;;;;;68.88;46.92;;;10.40;99.90;;;;;;5030786;28;20072;-70
2023/10/26 08:41:35;;;;;;;69.90;45.95;;;10.30;99.90;;;;;;5029320;28;20580;-70
2023/10/26 08:44:03;;;;;;;74.18;49.38;;;10.30;99.90;;;;;;5013762;28;20071;-70
2023/10/26 08:46:29;;;;;;;79.85;49.95;;;10.20;99.90;;;;;;5028864;28;20501;-70
2023/10/26 08:48:56;;;;;;;64.68;43.63;;;10.30;99.90;;;;;;5005843;28;20151;-71
2023/10/26 08:51:22;;;;;;;68.07;44.00;;;10.20;99.90;;;;;;5011664;28;20062;-70
2023/10/26 08:53:49;;;;;;;69.38;42.40;;;10.20;99.90;;;;;;4999382;28;20127;-69
2023/10/26 08:56:20;;;;;;;72.50;43.90;;;10.20;99.90;;;;;;5006671;28;20218;-70
2023/10/26 08:58:47;;;;;;;78.60;46.50;;;10.40;99.90;;;;;;5029998;28;20129;-70
2023/10/26 09:01:13;;;;;;;71.82;45.75;;;10.30;99.90;;;;;;5030362;28;20051;-70
2023/10/26 09:03:38;;;;;;;61.13;39.65;;;10.30;99.90;;;;;;5004465;28;20070;-71
2023/10/26 09:06:05;;;;;;;69.07;42.72;;;10.30;99.90;;;;;;5028213;28;20283;-71
2023/10/26 09:08:31;;;;;;;67.80;44.45;;;10.40;99.90;;;;;;5012859;28;20082;-71
2023/10/26 09:10:57;;;;;;;70.75;46.20;;;10.40;99.90;;;;;;5029248;28;20075;-70
2023/10/26 09:13:29;;;;;;;66.25;41.53;;;10.50;99.90;;;;;;5011642;28;20829;-71
2023/10/26 09:15:57;;;;;;;70.40;45.03;;;10.40;99.90;;;;;;5027889;28;20506;-70
2023/10/26 09:18:25;;;;;;;65.43;44.53;;;10.40;99.90;;;;;;5012564;28;20321;-70
2023/10/26 09:21:07;;;;;;;67.43;45.03;;;10.40;99.90;;;;;;5046140;28;20070;-70
2023/10/26 09:23:35;;;;;;;67.45;44.13;;;10.60;99.90;;;;;;5015020;28;20206;-71
2023/10/26 09:26:04;;;;;;;68.28;45.10;;;10.60;99.90;;;;;;5012529;28;20495;-71
2023/10/26 09:28:46;;;;;;;69.65;45.97;;;10.70;99.90;;;;;;5030663;28;20698;-71
2023/10/26 09:31:12;;;;;;;61.95;43.40;;;10.60;99.90;;;;;;5016248;28;20590;-71
2023/10/26 09:33:37;;;;;;;58.92;41.25;;;10.70;99.90;;;;;;5032894;28;20132;-71
2023/10/26 09:36:14;;;;;;;57.05;40.33;;;10.80;99.90;;;;;;5030525;28;20357;-72
2023/10/26 09:38:40;;;;;;;62.22;43.72;;;10.90;99.90;;;;;;5002000;28;20118;-69
2023/10/26 09:41:08;;;;;;;57.22;40.63;;;11.00;99.90;;;;;;4998001;28;20043;-71
2023/10/26 09:43:34;;;;;;;54.40;41.28;;;11.10;99.90;;;;;;5048791;28;20045;-70
2023/10/26 09:46:00;;;;;;;58.88;40.53;;;11.20;99.90;;;;;;5031177;28;20406;-70
2023/10/26 09:48:28;;;;;;;52.63;40.25;;;11.30;99.90;;;;;;5028279;28;20518;-70
2023/10/26 09:50:54;;;;;;;54.55;38.25;;;11.40;99.90;;;;;;5012531;28;20076;-70
2023/10/26 09:53:21;;;;;;;58.03;41.40;;;11.40;99.90;;;;;;5027691;28;20136;-70
2023/10/26 09:55:50;;;;;;;55.58;40.03;;;11.50;99.90;;;;;;5010635;28;20430;-70
2023/10/26 09:58:17;;;;;;;57.42;42.22;;;11.50;99.90;;;;;;5028479;28;20260;-72
2023/10/26 10:00:43;;;;;;;51.70;39.83;;;11.60;99.90;;;;;;4998005;28;20044;-69
2023/10/26 10:03:16;;;;;;;55.78;39.97;;;11.60;99.90;;;;;;5003989;28;20094;-71
2023/10/26 10:05:47;;;;;;;53.92;40.15;;;11.60;99.90;;;;;;5006460;28;20485;-70
2023/10/26 10:08:14;;;;;;;53.55;41.63;;;11.60;99.90;;;;;;5024450;28;20345;-70
2023/10/26 10:11:17;;;;;;;56.28;43.05;;;11.40;99.90;;;;;;5016233;28;20648;-70
2023/10/26 10:13:43;;;;;;;53.17;39.72;;;11.60;99.90;;;;;;5014935;28;20051;-71
2023/10/26 10:16:34;;;;;;;57.53;41.08;;;11.60;99.90;;;;;;5013505;28;20308;-71
2023/10/26 10:19:23;;;;;;;52.00;42.58;;;11.80;99.90;;;;;;5006504;28;20047;-71
2023/10/26 10:21:51;;;;;;;56.35;43.47;;;11.80;99.90;;;;;;5006196;28;20056;-70
2023/10/26 10:24:39;;;;;;;50.92;39.28;;;11.90;99.90;;;;;;5030068;28;20040;-71
2023/10/26 10:27:12;;;;;;;50.60;41.00;;;12.10;99.90;;;;;;5034476;28;20372;-69
2023/10/26 10:29:40;;;;;;;51.72;41.63;;;12.10;99.90;;;;;;5018948;28;20066;-70
2023/10/26 10:32:06;;;;;;;52.85;40.90;;;12.20;99.90;;;;;;5034101;28;20297;-69
2023/10/26 10:34:45;;;;;;;53.22;43.15;;;12.30;99.90;;;;;;5032692;28;20040;-70
2023/10/26 10:37:11;;;;;;;50.85;42.97;;;12.20;99.90;;;;;;5015260;28;20198;-71
2023/10/26 10:39:38;;;;;;;47.50;40.78;;;12.20;99.90;;;;;;5016623;28;20452;-70
2023/10/26 10:42:09;;;;;;;51.22;43.38;;;12.10;99.90;;;;;;5004816;28;20123;-70
2023/10/26 10:44:38;;;;;;;48.85;41.13;;;12.40;99.90;;;;;;5018043;28;20521;-70
2023/10/26 10:47:04;;;;;;;48.75;40.67;;;12.80;99.90;;;;;;5032526;28;20459;-70
2023/10/26 10:49:30;;;;;;;49.80;41.08;;;13.00;99.90;;;;;;5017983;28;20601;-70
2023/10/26 10:51:55;;;;;;;45.92;39.60;;;12.90;99.90;;;;;;5013859;28;20236;-70
2023/10/26 10:54:24;;;;;;;46.15;40.00;;;12.90;99.90;;;;;;5016932;28;20791;-70
2023/10/26 10:56:50;;;;;;;48.95;41.35;;;12.80;99.90;;;;;;5033378;28;20048;-70
2023/10/26 10:59:16;;;;;;;46.95;40.60;;;12.60;99.90;;;;;;5016285;28;20090;-69
2023/10/26 11:01:43;;;;;;;44.75;39.90;;;12.60;99.90;;;;;;5000204;28;20560;-70
2023/10/26 11:04:13;;;;;;;44.92;38.05;;;12.60;99.90;;;;;;5032206;28;20661;-70
2023/10/26 11:06:47;;;;;;;45.70;39.25;;;12.70;99.90;;;;;;5032670;28;20360;-72
2023/10/26 11:09:24;;;;;;;42.72;37.25;;;12.90;99.90;;;;;;5019233;28;20402;-71
2023/10/26 11:11:50;;;;;;;40.83;36.17;;;13.50;99.90;;;;;;5023240;28;20040;-71
2023/10/26 11:14:18;;;;;;;36.03;32.30;;;14.40;99.90;;;;;;5017889;28;20044;-69
2023/10/26 11:16:44;;;;;;;37.58;33.47;;;15.30;99.90;;;;;;5019103;28;20427;-70
2023/10/26 11:19:10;;;;;;;39.67;35.47;;;15.80;99.90;;;;;;5019037;28;20380;-70
2023/10/26 11:21:35;;;;;;;40.53;36.33;;;15.60;99.90;;;;;;5016547;28;20044;-70
2023/10/26 11:24:01;;;;;;;40.75;36.38;;;15.00;99.90;;;;;;5017117;28;20518;-71
2023/10/26 11:26:28;;;;;;;44.25;37.47;;;14.40;99.90;;;;;;5000893;28;20123;-71
2023/10/26 11:28:54;;;;;;;43.65;37.83;;;13.80;99.90;;;;;;5010042;28;20073;-71
2023/10/26 11:31:39;;;;;;;42.53;37.92;;;13.60;99.90;;;;;;5034340;28;20044;-71
2023/10/26 11:34:09;;;;;;;39.85;35.70;;;13.40;99.90;;;;;;5035021;28;20339;-71
2023/10/26 11:36:36;;;;;;;41.78;37.30;;;13.40;99.90;;;;;;5015209;28;20502;-71
2023/10/26 11:39:03;;;;;;;40.40;36.10;;;13.50;99.90;;;;;;5033002;28;20049;-70
2023/10/26 11:41:29;;;;;;;41.00;36.70;;;13.50;99.90;;;;;;5034160;28;20549;-71
2023/10/26 11:43:56;;;;;;;39.53;35.55;;;13.30;99.90;;;;;;5017208;28;20067;-70
2023/10/26 11:46:55;;;;;;;41.55;37.38;;;13.20;99.90;;;;;;5035176;28;20036;-70
2023/10/26 11:49:21;;;;;;;38.38;34.30;;;13.00;99.90;;;;;;5007950;28;20040;-72
2023/10/26 11:51:46;;;;;;;37.08;33.30;;;13.20;99.90;;;;;;5018277;28;20549;-71
2023/10/26 11:54:13;;;;;;;39.90;34.63;;;13.20;99.90;;;;;;5018533;28;20040;-71
2023/10/26 11:56:38;;;;;;;37.55;33.83;;;13.20;99.90;;;;;;5033534;28;20123;-70
2023/10/26 11:59:04;;;;;;;36.35;32.65;;;13.20;99.90;;;;;;5033499;28;20082;-71
2023/10/26 12:01:30;;;;;;;39.47;34.47;;;13.20;99.90;;;;;;5016220;28;20094;-71
2023/10/26 12:03:56;;;;;;;35.65;32.08;;;13.10;99.90;;;;;;5014821;28;20540;-71
2023/10/26 12:06:22;;;;;;;37.08;33.28;;;13.00;99.90;;;;;;5027164;28;20053;-71
2023/10/26 12:08:49;;;;;;;38.42;34.42;;;13.00;99.90;;;;;;5045257;28;20132;-70
2023/10/26 12:11:15;;;;;;;39.75;35.55;;;12.90;99.90;;;;;;4983564;28;20049;-71
2023/10/26 12:13:40;;;;;;;43.50;37.15;;;12.90;99.90;;;;;;5011744;28;20212;-71
2023/10/26 12:16:06;;;;;;;39.78;35.67;;;12.80;99.90;;;;;;5010281;28;20138;-71
2023/10/26 12:18:35;;;;;;;39.42;35.20;;;12.80;99.90;;;;;;5029618;28;20195;-71
2023/10/26 12:21:00;;;;;;;39.40;34.88;;;12.70;99.90;;;;;;5010628;28;20033;-71
2023/10/26 12:23:26;;;;;;;42.92;37.65;;;12.70;99.90;;;;;;5011689;28;20029;-71
2023/10/26 12:25:53;;;;;;;41.78;37.22;;;12.70;99.90;;;;;;5011629;28;20094;-71
2023/10/26 12:28:19;;;;;;;38.28;34.28;;;12.80;99.90;;;;;;5012374;28;20041;-70